createdAt,value
2018-07-27T05:05:58.828Z,57.86
2018-07-27T05:11:02.933Z,57.66
2018-07-27T05:16:10.146Z,57.62
2018-07-27T05:21:14.422Z,57.37
2018-07-27T05:26:28.079Z,57.08
2018-07-27T05:31:32.055Z,56.87
2018-07-27T05:36:40.865Z,56.80
2018-07-27T05:41:44.575Z,56.73
2018-07-27T05:46:48.036Z,56.60
2018-07-27T05:51:51.510Z,56.53
2018-07-27T05:56:54.873Z,56.35
2018-07-27T06:01:58.211Z,56.37
2018-07-27T06:07:01.554Z,56.23
2018-07-27T06:12:04.882Z,56.13
2018-07-27T06:17:08.262Z,55.83
2018-07-27T06:22:11.990Z,55.48
2018-07-27T06:27:15.349Z,55.18
2018-07-27T06:32:19.034Z,54.35
2018-07-27T06:37:22.760Z,54.38
2018-07-27T06:42:26.678Z,53.85
2018-07-27T06:47:30.011Z,53.16
2018-07-27T06:52:33.405Z,52.79
2018-07-27T06:57:36.735Z,52.43
2018-07-27T07:02:40.834Z,52.15
2018-07-27T07:07:44.202Z,51.51
2018-07-27T07:12:47.557Z,51.80
2018-07-27T07:17:50.902Z,52.41
2018-07-27T07:22:54.339Z,51.73
2018-07-27T07:27:57.691Z,50.69
2018-07-27T07:33:01.070Z,50.70
2018-07-27T07:38:04.406Z,54.33
2018-07-27T07:43:07.743Z,54.11
2018-07-27T07:48:11.079Z,53.97
2018-07-27T07:53:14.582Z,53.79
2018-07-27T07:58:17.915Z,54.18
2018-07-27T08:03:21.245Z,53.57
2018-07-27T08:08:24.570Z,53.36
2018-07-27T08:13:28.674Z,52.60
2018-07-27T08:18:32.006Z,53.22
2018-07-27T08:23:36.112Z,52.31
2018-07-27T08:28:42.259Z,51.59
2018-07-27T08:33:45.598Z,50.77
2018-07-27T08:38:48.935Z,50.38
2018-07-27T08:43:53.045Z,50.27
2018-07-27T08:48:56.406Z,49.83
2018-07-27T08:54:00.506Z,49.48
2018-07-27T08:59:03.839Z,48.52
2018-07-27T09:04:07.943Z,49.12
2018-07-27T09:09:11.531Z,48.50
2018-07-27T09:14:14.870Z,48.90
2018-07-27T09:19:18.194Z,47.86
2018-07-27T09:24:21.739Z,47.22
2018-07-27T09:29:24.887Z,46.13
2018-07-27T09:34:28.930Z,45.85
2018-07-27T09:39:32.302Z,45.04
2018-07-27T09:44:35.675Z,45.18
2018-07-27T09:49:39.202Z,44.74
2018-07-27T09:54:43.299Z,44.59
2018-07-27T09:59:46.632Z,44.43
2018-07-27T10:04:50.086Z,44.54
2018-07-27T10:09:53.535Z,44.67
2018-07-27T10:14:56.888Z,44.62
2018-07-27T10:20:00.460Z,44.48
2018-07-27T10:25:04.145Z,44.66
2018-07-27T10:30:07.583Z,44.65
2018-07-27T10:35:10.928Z,44.87
2018-07-27T10:40:14.289Z,44.91
2018-07-27T10:45:17.653Z,44.31
2018-07-27T10:50:21.073Z,44.40
2018-07-27T10:55:24.371Z,43.92
2018-07-27T11:00:27.731Z,43.76
2018-07-27T11:05:31.858Z,44.28
2018-07-27T11:10:35.982Z,43.34
2018-07-27T11:15:39.328Z,43.32
2018-07-27T11:20:42.769Z,42.89
2018-07-27T11:25:46.104Z,41.70
2018-07-27T11:30:49.449Z,41.74
2018-07-27T11:35:53.090Z,41.82
2018-07-27T11:40:56.418Z,41.01
2018-07-27T11:45:59.773Z,40.91
2018-07-27T11:51:03.111Z,40.83
2018-07-27T11:56:06.462Z,39.67
2018-07-27T12:01:09.811Z,39.00
2018-07-27T12:06:13.157Z,38.56
2018-07-27T12:11:16.502Z,37.77
2018-07-27T12:16:19.939Z,38.33
2018-07-27T12:21:23.402Z,37.78
2018-07-27T12:26:26.628Z,37.59
2018-07-27T12:31:29.962Z,36.09
2018-07-27T12:36:33.313Z,35.58
2018-07-27T12:41:37.707Z,34.59
2018-07-27T12:46:41.051Z,34.83
2018-07-27T12:51:44.496Z,34.41
2018-07-27T12:56:47.950Z,34.91
2018-07-27T13:01:51.489Z,34.39
2018-07-27T13:06:54.845Z,33.99
2018-07-27T13:11:58.391Z,33.74
2018-07-27T13:17:01.738Z,33.55
2018-07-27T13:22:05.162Z,32.05
2018-07-27T13:27:08.572Z,32.43
2018-07-27T13:32:12.008Z,31.62
2018-07-27T13:37:15.345Z,31.15
2018-07-27T13:42:18.687Z,30.17
2018-07-27T13:47:26.433Z,30.26
2018-07-27T13:52:29.842Z,30.79
2018-07-27T13:57:33.200Z,30.51
2018-07-27T14:02:36.541Z,29.61
2018-07-27T14:07:39.958Z,29.83
2018-07-27T14:12:43.988Z,29.39
2018-07-27T14:17:47.321Z,28.74
2018-07-27T14:22:50.664Z,27.91
2018-07-27T14:27:53.990Z,27.88
2018-07-27T14:32:57.335Z,27.43
2018-07-27T14:38:00.662Z,26.58
2018-07-27T14:43:04.012Z,26.29
2018-07-27T14:48:07.347Z,25.48
2018-07-27T14:53:10.682Z,24.37
2018-07-27T14:58:14.023Z,24.07
2018-07-27T15:03:17.400Z,25.70
2018-07-27T15:08:21.517Z,27.25
2018-07-27T15:13:24.858Z,25.64
2018-07-27T15:18:33.077Z,25.33
2018-07-27T15:23:37.254Z,24.57
2018-07-27T15:28:41.355Z,25.46
2018-07-27T15:33:45.007Z,24.65
2018-07-27T15:38:49.268Z,25.04
2018-07-27T15:43:52.798Z,26.20
2018-07-27T15:48:56.206Z,25.06
2018-07-27T15:53:59.547Z,24.85
2018-07-27T15:59:02.990Z,24.80
2018-07-27T16:04:07.234Z,23.53
2018-07-27T16:09:10.909Z,23.56
2018-07-27T16:14:14.380Z,23.36
2018-07-27T16:19:17.754Z,23.71
2018-07-27T16:24:21.094Z,23.93
2018-07-27T16:29:25.197Z,24.15
2018-07-27T16:34:28.546Z,23.66
2018-07-27T16:39:32.665Z,23.62
2018-07-27T16:44:36.770Z,22.97
2018-07-27T16:49:40.103Z,23.38
2018-07-27T16:54:44.210Z,23.78
2018-07-27T16:59:47.603Z,23.41
2018-07-27T17:04:50.911Z,23.09
2018-07-27T17:09:54.247Z,22.91
2018-07-27T17:14:57.586Z,22.92
2018-07-27T17:20:01.689Z,23.12
2018-07-27T17:25:05.056Z,22.86
2018-07-27T17:30:08.411Z,22.68
2018-07-27T17:35:11.787Z,22.20
2018-07-27T17:40:15.132Z,22.24
2018-07-27T17:45:18.467Z,22.44
2018-07-27T17:50:21.798Z,22.37
2018-07-27T17:55:26.926Z,22.37
2018-07-27T18:00:30.259Z,22.40
2018-07-27T18:05:40.112Z,22.58
2018-07-27T18:10:43.449Z,22.81
2018-07-27T18:15:47.547Z,23.11
2018-07-27T18:20:51.673Z,23.40
2018-07-27T18:26:08.526Z,24.04
2018-07-27T18:31:11.860Z,24.46
2018-07-27T18:36:22.381Z,25.04
2018-07-27T18:41:25.714Z,26.37
2018-07-27T18:46:35.168Z,27.19
2018-07-27T18:51:44.894Z,27.33
2018-07-27T18:56:48.223Z,27.61
2018-07-27T19:01:51.562Z,27.82
2018-07-27T19:06:54.922Z,28.16
2018-07-27T19:11:58.267Z,28.46
2018-07-27T19:17:01.632Z,28.60
2018-07-27T19:22:05.028Z,30.95
2018-07-27T19:27:09.123Z,31.49
2018-07-27T19:32:12.639Z,32.30
2018-07-27T19:37:16.279Z,32.33
2018-07-27T19:42:20.416Z,32.73
2018-07-27T19:47:23.778Z,32.71
2018-07-27T19:52:27.307Z,32.95
2018-07-27T19:57:30.637Z,33.32
2018-07-27T20:02:33.980Z,33.46
2018-07-27T20:07:38.079Z,33.91
2018-07-27T20:12:41.445Z,33.92
2018-07-27T20:17:45.617Z,34.09
2018-07-27T20:22:49.130Z,34.65
2018-07-27T20:27:55.383Z,34.88
2018-07-27T20:33:01.697Z,35.46
2018-07-27T20:38:07.369Z,35.66
2018-07-27T20:43:12.174Z,35.84
2018-07-27T20:48:20.649Z,36.02
2018-07-27T20:53:26.475Z,36.28
2018-07-27T20:58:30.202Z,36.52
2018-07-27T21:03:36.995Z,36.84
2018-07-27T21:08:40.362Z,36.87
2018-07-27T21:13:43.728Z,38.18
